Satin, Texas
Current Conditions -  °F | °C
As of 1:55 AM on Thursday 23 Oct 2014 (Local Time) from KPWG Reporting Station
Broken Clouds Broken Clouds  
Wind Chill: 68°   Ceiling: 11000
Heat Index: 68°   Visibility: 10mi
Dew Point: 54°   Wind: 8mph
Humidity: 60%   Direction: 150°SSE
Pressure: 30.12"   Gusts: NA
Location:  31.35°N, 97.03°W
Report Text: KPWG 230655Z AUTO 15007KT 10SM BKN110 20/12 A3012 RMK AO1
Loading
Personal Weather Stations






























Interactive Weather Map
Tropical Storm Tracking
New forecast layout! Learn more

10-Day Weather Forecast

Advertisements
Track Severe Weather on mobile